sensor_id;sensor_type;location;lat;lon;timestamp;pressure;altitude;pressure_sealevel;temperature;humidity
38197;BME280;26543;51.976;4.616;2023-11-21T00:01:34;60849.13;;;-140.72;100.00
38197;BME280;26543;51.976;4.616;2023-11-21T00:03:59;60836.91;;;-140.72;100.00
38197;BME280;26543;51.976;4.616;2023-11-21T00:06:26;60877.59;;;-140.72;100.00
38197;BME280;26543;51.976;4.616;2023-11-21T00:08:51;60897.91;;;-140.72;100.00
38197;BME280;26543;51.976;4.616;2023-11-21T00:11:17;60948.75;;;-140.72;100.00
38197;BME280;26543;51.976;4.616;2023-11-21T00:13:42;60950.78;;;-140.72;100.00
38197;BME280;26543;51.976;4.616;2023-11-21T00:16:07;60979.25;;;-140.72;100.00
38197;BME280;26543;51.976;4.616;2023-11-21T00:18:32;60975.19;;;-140.72;100.00
38197;BME280;26543;51.976;4.616;2023-11-21T00:20:57;60942.66;;;-140.72;100.00
38197;BME280;26543;51.976;4.616;2023-11-21T00:23:24;60950.78;;;-140.72;100.00
38197;BME280;26543;51.976;4.616;2023-11-21T00:25:49;60995.53;;;-140.72;100.00
38197;BME280;26543;51.976;4.616;2023-11-21T00:28:14;61032.13;;;-140.72;100.00
38197;BME280;26543;51.976;4.616;2023-11-21T00:30:40;61028.06;;;-140.72;100.00
38197;BME280;26543;51.976;4.616;2023-11-21T00:33:05;61011.81;;;-140.72;100.00
38197;BME280;26543;51.976;4.616;2023-11-21T00:35:30;61070.78;;;-140.72;100.00
38197;BME280;26543;51.976;4.616;2023-11-21T00:37:55;61074.84;;;-140.72;100.00
38197;BME280;26543;51.976;4.616;2023-11-21T00:40:21;61017.91;;;-140.72;100.00
38197;BME280;26543;51.976;4.616;2023-11-21T00:42:47;61052.47;;;-140.72;100.00
38197;BME280;26543;51.976;4.616;2023-11-21T00:45:12;61097.22;;;-140.72;100.00
38197;BME280;26543;51.976;4.616;2023-11-21T00:47:37;61068.75;;;-140.72;100.00
38197;BME280;26543;51.976;4.616;2023-11-21T00:50:04;61101.28;;;-140.72;100.00
38197;BME280;26543;51.976;4.616;2023-11-21T00:52:31;61046.38;;;-140.72;100.00
38197;BME280;26543;51.976;4.616;2023-11-21T00:54:56;61066.69;;;-140.72;100.00
38197;BME280;26543;51.976;4.616;2023-11-21T00:57:21;61097.22;;;-140.72;100.00
38197;BME280;26543;51.976;4.616;2023-11-21T00:59:46;61072.81;;;-140.72;100.00
38197;BME280;26543;51.976;4.616;2023-11-21T01:02:11;61048.41;;;-140.72;100.00
38197;BME280;26543;51.976;4.616;2023-11-21T01:04:37;61048.41;;;-140.72;100.00
38197;BME280;26543;51.976;4.616;2023-11-21T01:07:02;61044.34;;;-140.72;100.00
38197;BME280;26543;51.976;4.616;2023-11-21T01:09:28;61046.38;;;-140.72;100.00
38197;BME280;26543;51.976;4.616;2023-11-21T01:11:55;61026.03;;;-140.72;100.00
38197;BME280;26543;51.976;4.616;2023-11-21T01:14:20;61044.34;;;-140.72;100.00
38197;BME280;26543;51.976;4.616;2023-11-21T01:16:45;61046.38;;;-140.72;100.00
38197;BME280;26543;51.976;4.616;2023-11-21T01:19:11;61058.56;;;-140.72;100.00
38197;BME280;26543;51.976;4.616;2023-11-21T01:21:36;61034.16;;;-140.72;100.00
38197;BME280;26543;51.976;4.616;2023-11-21T01:24:01;61048.41;;;-140.72;100.00
38197;BME280;26543;51.976;4.616;2023-11-21T01:26:27;60995.53;;;-140.72;100.00
38197;BME280;26543;51.976;4.616;2023-11-21T01:28:53;61080.94;;;-140.72;100.00
38197;BME280;26543;51.976;4.616;2023-11-21T01:31:18;61028.06;;;-140.72;100.00
38197;BME280;26543;51.976;4.616;2023-11-21T01:33:44;61024.00;;;-140.72;100.00
38197;BME280;26543;51.976;4.616;2023-11-21T01:36:09;60999.59;;;-140.72;100.00
38197;BME280;26543;51.976;4.616;2023-11-21T01:38:35;60995.53;;;-140.72;100.00
38197;BME280;26543;51.976;4.616;2023-11-21T01:41:00;61028.06;;;-140.72;100.00
38197;BME280;26543;51.976;4.616;2023-11-21T01:43:26;61017.91;;;-140.72;100.00
38197;BME280;26543;51.976;4.616;2023-11-21T01:45:51;61007.72;;;-140.72;100.00
38197;BME280;26543;51.976;4.616;2023-11-21T01:48:16;61038.22;;;-140.72;100.00
38197;BME280;26543;51.976;4.616;2023-11-21T01:50:42;61024.00;;;-140.72;100.00
38197;BME280;26543;51.976;4.616;2023-11-21T01:53:07;61019.94;;;-140.72;100.00
38197;BME280;26543;51.976;4.616;2023-11-21T01:55:33;60991.47;;;-140.72;100.00
38197;BME280;26543;51.976;4.616;2023-11-21T01:57:58;60985.38;;;-140.72;100.00
38197;BME280;26543;51.976;4.616;2023-11-21T02:00:24;61019.94;;;-140.72;100.00
38197;BME280;26543;51.976;4.616;2023-11-21T02:02:50;60987.41;;;-140.72;100.00
38197;BME280;26543;51.976;4.616;2023-11-21T02:05:16;60971.13;;;-140.72;100.00
38197;BME280;26543;51.976;4.616;2023-11-21T02:07:44;61036.19;;;-140.72;100.00
38197;BME280;26543;51.976;4.616;2023-11-21T02:10:10;61003.66;;;-140.72;100.00
38197;BME280;26543;51.976;4.616;2023-11-21T02:12:39;61026.03;;;-140.72;100.00
38197;BME280;26543;51.976;4.616;2023-11-21T02:15:05;60997.56;;;-140.72;100.00
38197;BME280;26543;51.976;4.616;2023-11-21T02:17:35;61026.03;;;-140.72;100.00
38197;BME280;26543;51.976;4.616;2023-11-21T02:20:00;60960.97;;;-140.72;100.00
38197;BME280;26543;51.976;4.616;2023-11-21T02:22:26;61011.81;;;-140.72;100.00
38197;BME280;26543;51.976;4.616;2023-11-21T02:24:55;60997.56;;;-140.72;100.00
38197;BME280;26543;51.976;4.616;2023-11-21T02:27:20;60995.53;;;-140.72;100.00
38197;BME280;26543;51.976;4.616;2023-11-21T02:29:48;61007.72;;;-140.72;100.00
38197;BME280;26543;51.976;4.616;2023-11-21T02:32:13;60991.47;;;-140.72;100.00
38197;BME280;26543;51.976;4.616;2023-11-21T02:34:39;60977.22;;;-140.72;100.00
38197;BME280;26543;51.976;4.616;2023-11-21T02:37:04;61030.09;;;-140.72;100.00
38197;BME280;26543;51.976;4.616;2023-11-21T02:39:30;61034.16;;;-140.72;100.00
38197;BME280;26543;51.976;4.616;2023-11-21T02:41:56;61044.34;;;-140.72;100.00
38197;BME280;26543;51.976;4.616;2023-11-21T02:44:22;60981.28;;;-140.72;100.00
38197;BME280;26543;51.976;4.616;2023-11-21T02:46:47;61005.69;;;-140.72;100.00
38197;BME280;26543;51.976;4.616;2023-11-21T02:49:12;61015.88;;;-140.72;100.00
38197;BME280;26543;51.976;4.616;2023-11-21T02:51:37;61058.56;;;-140.72;100.00
38197;BME280;26543;51.976;4.616;2023-11-21T02:54:04;61060.59;;;-140.72;100.00
38197;BME280;26543;51.976;4.616;2023-11-21T02:56:31;61017.91;;;-140.72;100.00
38197;BME280;26543;51.976;4.616;2023-11-21T02:58:56;61068.75;;;-140.72;100.00
38197;BME280;26543;51.976;4.616;2023-11-21T03:01:22;61040.28;;;-140.72;100.00
38197;BME280;26543;51.976;4.616;2023-11-21T03:03:49;61054.50;;;-140.72;100.00
38197;BME280;26543;51.976;4.616;2023-11-21T03:06:16;61119.56;;;-140.72;100.00
38197;BME280;26543;51.976;4.616;2023-11-21T03:08:41;61082.97;;;-140.72;100.00
38197;BME280;26543;51.976;4.616;2023-11-21T03:11:07;61080.94;;;-140.72;100.00
38197;BME280;26543;51.976;4.616;2023-11-21T03:13:33;61101.28;;;-140.72;100.00
38197;BME280;26543;51.976;4.616;2023-11-21T03:15:58;61131.78;;;-140.72;100.00
38197;BME280;26543;51.976;4.616;2023-11-21T03:18:23;61119.56;;;-140.72;100.00
38197;BME280;26543;51.976;4.616;2023-11-21T03:20:48;61089.06;;;-140.72;100.00
38197;BME280;26543;51.976;4.616;2023-11-21T03:23:13;61085.00;;;-140.72;100.00
38197;BME280;26543;51.976;4.616;2023-11-21T03:25:40;61129.75;;;-140.72;100.00
38197;BME280;26543;51.976;4.616;2023-11-21T03:28:05;61093.13;;;-140.72;100.00
38197;BME280;26543;51.976;4.616;2023-11-21T03:30:30;61097.22;;;-140.72;100.00
38197;BME280;26543;51.976;4.616;2023-11-21T03:35:58;61148.03;;;-140.72;100.00
38197;BME280;26543;51.976;4.616;2023-11-21T03:38:33;61089.06;;;-140.72;100.00
38197;BME280;26543;51.976;4.616;2023-11-21T03:43:29;61146.00;;;-140.72;100.00
38197;BME280;26543;51.976;4.616;2023-11-21T03:45:54;61123.66;;;-140.72;100.00
38197;BME280;26543;51.976;4.616;2023-11-21T03:48:19;61097.22;;;-140.72;100.00
38197;BME280;26543;51.976;4.616;2023-11-21T03:50:45;61133.81;;;-140.72;100.00
38197;BME280;26543;51.976;4.616;2023-11-21T03:56:31;61156.19;;;-140.72;100.00
38197;BME280;26543;51.976;4.616;2023-11-21T03:58:57;61182.63;;;-140.72;100.00
38197;BME280;26543;51.976;4.616;2023-11-21T04:04:32;61182.63;;;-140.72;100.00
38197;BME280;26543;51.976;4.616;2023-11-21T04:06:57;61162.28;;;-140.72;100.00
38197;BME280;26543;51.976;4.616;2023-11-21T04:09:23;61174.47;;;-140.72;100.00
38197;BME280;26543;51.976;4.616;2023-11-21T04:11:50;61186.69;;;-140.72;100.00
38197;BME280;26543;51.976;4.616;2023-11-21T04:14:15;61182.63;;;-140.72;100.00
38197;BME280;26543;51.976;4.616;2023-11-21T04:16:40;61146.00;;;-140.72;100.00
38197;BME280;26543;51.976;4.616;2023-11-21T04:19:06;61135.84;;;-140.72;100.00
38197;BME280;26543;51.976;4.616;2023-11-21T04:21:31;61198.88;;;-140.72;100.00
38197;BME280;26543;51.976;4.616;2023-11-21T04:23:58;61166.34;;;-140.72;100.00
38197;BME280;26543;51.976;4.616;2023-11-21T04:26:23;61200.91;;;-140.72;100.00
38197;BME280;26543;51.976;4.616;2023-11-21T04:28:48;61182.63;;;-140.72;100.00
38197;BME280;26543;51.976;4.616;2023-11-21T04:31:13;61158.22;;;-140.72;100.00
38197;BME280;26543;51.976;4.616;2023-11-21T04:33:39;61198.88;;;-140.72;100.00
38197;BME280;26543;51.976;4.616;2023-11-21T04:36:04;61166.34;;;-140.72;100.00
38197;BME280;26543;51.976;4.616;2023-11-21T04:38:29;61182.63;;;-140.72;100.00
38197;BME280;26543;51.976;4.616;2023-11-21T04:40:54;61166.34;;;-140.72;100.00
38197;BME280;26543;51.976;4.616;2023-11-21T04:43:20;61180.59;;;-140.72;100.00
38197;BME280;26543;51.976;4.616;2023-11-21T04:45:45;61200.91;;;-140.72;100.00
38197;BME280;26543;51.976;4.616;2023-11-21T04:48:10;61211.09;;;-140.72;100.00
38197;BME280;26543;51.976;4.616;2023-11-21T04:50:35;61225.31;;;-140.72;100.00
38197;BME280;26543;51.976;4.616;2023-11-21T04:53:01;61231.44;;;-140.72;100.00
38197;BME280;26543;51.976;4.616;2023-11-21T04:55:26;61233.47;;;-140.72;100.00
38197;BME280;26543;51.976;4.616;2023-11-21T04:57:53;61253.78;;;-140.72;100.00
38197;BME280;26543;51.976;4.616;2023-11-21T05:00:18;61215.16;;;-140.72;100.00
38197;BME280;26543;51.976;4.616;2023-11-21T05:02:43;61241.59;;;-140.72;100.00
38197;BME280;26543;51.976;4.616;2023-11-21T05:05:09;61205.00;;;-140.72;100.00
38197;BME280;26543;51.976;4.616;2023-11-21T05:07:35;61255.81;;;-140.72;100.00
38197;BME280;26543;51.976;4.616;2023-11-21T05:10:01;61227.34;;;-140.72;100.00
38197;BME280;26543;51.976;4.616;2023-11-21T05:12:30;61286.34;;;-140.72;100.00
38197;BME280;26543;51.976;4.616;2023-11-21T05:14:58;61280.22;;;-140.72;100.00
38197;BME280;26543;51.976;4.616;2023-11-21T05:17:23;61268.03;;;-140.72;100.00
38197;BME280;26543;51.976;4.616;2023-11-21T05:19:48;61259.91;;;-140.72;100.00
38197;BME280;26543;51.976;4.616;2023-11-21T05:22:14;61253.78;;;-140.72;100.00
38197;BME280;26543;51.976;4.616;2023-11-21T05:24:39;61263.97;;;-140.72;100.00
38197;BME280;26543;51.976;4.616;2023-11-21T05:27:04;61245.66;;;-140.72;100.00
38197;BME280;26543;51.976;4.616;2023-11-21T05:29:29;61284.31;;;-140.72;100.00
38197;BME280;26543;51.976;4.616;2023-11-21T05:31:54;61227.34;;;-140.72;100.00
38197;BME280;26543;51.976;4.616;2023-11-21T05:34:20;61233.47;;;-140.72;100.00
38197;BME280;26543;51.976;4.616;2023-11-21T05:36:45;61243.63;;;-140.72;100.00
38197;BME280;26543;51.976;4.616;2023-11-21T05:39:11;61272.09;;;-140.72;100.00
38197;BME280;26543;51.976;4.616;2023-11-21T05:41:36;61245.66;;;-140.72;100.00
38197;BME280;26543;51.976;4.616;2023-11-21T05:44:02;61251.75;;;-140.72;100.00
38197;BME280;26543;51.976;4.616;2023-11-21T05:46:27;61217.19;;;-140.72;100.00
38197;BME280;26543;51.976;4.616;2023-11-21T05:48:52;61215.16;;;-140.72;100.00
38197;BME280;26543;51.976;4.616;2023-11-21T05:51:17;61205.00;;;-140.72;100.00
38197;BME280;26543;51.976;4.616;2023-11-21T05:53:42;61223.28;;;-140.72;100.00
38197;BME280;26543;51.976;4.616;2023-11-21T05:56:08;61211.09;;;-140.72;100.00
38197;BME280;26543;51.976;4.616;2023-11-21T05:58:33;61243.63;;;-140.72;100.00
38197;BME280;26543;51.976;4.616;2023-11-21T06:00:58;61215.16;;;-140.72;100.00
38197;BME280;26543;51.976;4.616;2023-11-21T06:03:23;61196.84;;;-140.72;100.00
38197;BME280;26543;51.976;4.616;2023-11-21T06:05:49;61202.94;;;-140.72;100.00
38197;BME280;26543;51.976;4.616;2023-11-21T06:08:14;61186.69;;;-140.72;100.00
38197;BME280;26543;51.976;4.616;2023-11-21T06:10:42;61192.78;;;-140.72;100.00
38197;BME280;26543;51.976;4.616;2023-11-21T06:13:08;61231.44;;;-140.72;100.00
38197;BME280;26543;51.976;4.616;2023-11-21T06:15:35;61198.88;;;-140.72;100.00
38197;BME280;26543;51.976;4.616;2023-11-21T06:18:00;61188.72;;;-140.72;100.00
38197;BME280;26543;51.976;4.616;2023-11-21T06:20:26;61209.06;;;-140.72;100.00
38197;BME280;26543;51.976;4.616;2023-11-21T06:22:51;61219.22;;;-140.72;100.00
38197;BME280;26543;51.976;4.616;2023-11-21T06:25:16;61160.25;;;-140.72;100.00
38197;BME280;26543;51.976;4.616;2023-11-21T06:27:43;61235.50;;;-140.72;100.00
38197;BME280;26543;51.976;4.616;2023-11-21T06:30:15;61202.94;;;-140.72;100.00
38197;BME280;26543;51.976;4.616;2023-11-21T06:32:41;61219.22;;;-140.72;100.00
38197;BME280;26543;51.976;4.616;2023-11-21T06:35:07;61255.81;;;-140.72;100.00
38197;BME280;26543;51.976;4.616;2023-11-21T06:37:33;61241.59;;;-140.72;100.00
38197;BME280;26543;51.976;4.616;2023-11-21T06:39:59;61251.75;;;-140.72;100.00
38197;BME280;26543;51.976;4.616;2023-11-21T06:42:25;61263.97;;;-140.72;100.00
38197;BME280;26543;51.976;4.616;2023-11-21T06:44:50;61247.69;;;-140.72;100.00
38197;BME280;26543;51.976;4.616;2023-11-21T06:47:19;61284.31;;;-140.72;100.00
38197;BME280;26543;51.976;4.616;2023-11-21T06:49:47;61245.66;;;-140.72;100.00
38197;BME280;26543;51.976;4.616;2023-11-21T06:52:15;61219.22;;;-140.72;100.00
38197;BME280;26543;51.976;4.616;2023-11-21T06:54:40;61198.88;;;-140.72;100.00
38197;BME280;26543;51.976;4.616;2023-11-21T06:57:05;61198.88;;;-140.72;100.00
38197;BME280;26543;51.976;4.616;2023-11-21T06:59:31;61174.47;;;-140.72;100.00
38197;BME280;26543;51.976;4.616;2023-11-21T07:01:56;61148.03;;;-140.72;100.00
38197;BME280;26543;51.976;4.616;2023-11-21T07:04:21;61198.88;;;-140.72;100.00
38197;BME280;26543;51.976;4.616;2023-11-21T07:06:46;61158.22;;;-140.72;100.00
38197;BME280;26543;51.976;4.616;2023-11-21T07:09:11;61192.78;;;-140.72;100.00
38197;BME280;26543;51.976;4.616;2023-11-21T07:11:37;61162.28;;;-140.72;100.00
38197;BME280;26543;51.976;4.616;2023-11-21T07:14:05;61215.16;;;-140.72;100.00
38197;BME280;26543;51.976;4.616;2023-11-21T07:16:34;61215.16;;;-140.72;100.00
38197;BME280;26543;51.976;4.616;2023-11-21T07:19:00;61261.94;;;-140.72;100.00
38197;BME280;26543;51.976;4.616;2023-11-21T07:21:25;61237.53;;;-140.72;100.00
38197;BME280;26543;51.976;4.616;2023-11-21T07:23:50;61259.91;;;-140.72;100.00
38197;BME280;26543;51.976;4.616;2023-11-21T07:26:15;61257.88;;;-140.72;100.00
38197;BME280;26543;51.976;4.616;2023-11-21T07:28:40;61263.97;;;-140.72;100.00
38197;BME280;26543;51.976;4.616;2023-11-21T07:31:06;61304.63;;;-140.72;100.00
38197;BME280;26543;51.976;4.616;2023-11-21T07:33:31;61261.94;;;-140.72;100.00
38197;BME280;26543;51.976;4.616;2023-11-21T07:35:56;61302.59;;;-140.72;100.00
38197;BME280;26543;51.976;4.616;2023-11-21T07:38:21;61316.84;;;-140.72;100.00
38197;BME280;26543;51.976;4.616;2023-11-21T07:40:46;61333.09;;;-140.72;100.00
38197;BME280;26543;51.976;4.616;2023-11-21T07:43:12;61327.00;;;-140.72;100.00
38197;BME280;26543;51.976;4.616;2023-11-21T07:45:37;61345.31;;;-140.72;100.00
38197;BME280;26543;51.976;4.616;2023-11-21T07:48:02;61349.38;;;-140.72;100.00
38197;BME280;26543;51.976;4.616;2023-11-21T07:50:30;61361.59;;;-140.72;100.00
38197;BME280;26543;51.976;4.616;2023-11-21T07:52:55;61345.31;;;-140.72;100.00
38197;BME280;26543;51.976;4.616;2023-11-21T07:55:21;61316.84;;;-140.72;100.00
38197;BME280;26543;51.976;4.616;2023-11-21T07:57:46;61324.97;;;-140.72;100.00
38197;BME280;26543;51.976;4.616;2023-11-21T08:00:11;61314.81;;;-140.72;100.00
38197;BME280;26543;51.976;4.616;2023-11-21T08:02:38;61286.34;;;-140.72;100.00
38197;BME280;26543;51.976;4.616;2023-11-21T08:05:03;61300.56;;;-140.72;100.00
38197;BME280;26543;51.976;4.616;2023-11-21T08:07:29;61276.16;;;-140.72;100.00
38197;BME280;26543;51.976;4.616;2023-11-21T08:09:54;61251.75;;;-140.72;100.00
38197;BME280;26543;51.976;4.616;2023-11-21T08:12:19;61253.78;;;-140.72;100.00
38197;BME280;26543;51.976;4.616;2023-11-21T08:14:45;61217.19;;;-140.72;100.00
38197;BME280;26543;51.976;4.616;2023-11-21T08:17:10;61257.88;;;-140.72;100.00
38197;BME280;26543;51.976;4.616;2023-11-21T08:19:35;61227.34;;;-140.72;100.00
38197;BME280;26543;51.976;4.616;2023-11-21T08:22:01;61182.63;;;-140.72;100.00
38197;BME280;26543;51.976;4.616;2023-11-21T08:24:27;61211.09;;;-140.72;100.00
38197;BME280;26543;51.976;4.616;2023-11-21T08:26:52;61198.88;;;-140.72;100.00
38197;BME280;26543;51.976;4.616;2023-11-21T08:29:19;61125.69;;;-140.72;100.00
38197;BME280;26543;51.976;4.616;2023-11-21T08:31:44;61137.88;;;-140.72;100.00
38197;BME280;26543;51.976;4.616;2023-11-21T08:34:11;61072.81;;;-140.72;100.00
38197;BME280;26543;51.976;4.616;2023-11-21T08:36:40;61087.03;;;-140.72;100.00
38197;BME280;26543;51.976;4.616;2023-11-21T08:39:06;61072.81;;;-140.72;100.00
38197;BME280;26543;51.976;4.616;2023-11-21T08:41:31;61015.88;;;-140.72;100.00
38197;BME280;26543;51.976;4.616;2023-11-21T08:43:56;61040.28;;;-140.72;100.00
38197;BME280;26543;51.976;4.616;2023-11-21T08:46:23;61009.75;;;-140.72;100.00
38197;BME280;26543;51.976;4.616;2023-11-21T08:48:50;61013.84;;;-140.72;100.00
38197;BME280;26543;51.976;4.616;2023-11-21T08:51:17;61007.72;;;-140.72;100.00
38197;BME280;26543;51.976;4.616;2023-11-21T08:53:42;60979.25;;;-140.72;100.00
38197;BME280;26543;51.976;4.616;2023-11-21T08:56:08;60981.28;;;-140.72;100.00
38197;BME280;26543;51.976;4.616;2023-11-21T08:58:37;60963.00;;;-140.72;100.00
38197;BME280;26543;51.976;4.616;2023-11-21T09:01:02;60942.66;;;-140.72;100.00
38197;BME280;26543;51.976;4.616;2023-11-21T09:03:27;60891.81;;;-140.72;100.00
38197;BME280;26543;51.976;4.616;2023-11-21T09:05:53;60922.31;;;-140.72;100.00
38197;BME280;26543;51.976;4.616;2023-11-21T09:08:18;60885.72;;;-140.72;100.00
38197;BME280;26543;51.976;4.616;2023-11-21T09:10:44;60891.81;;;-140.72;100.00
38197;BME280;26543;51.976;4.616;2023-11-21T09:13:12;60822.69;;;-140.72;100.00
38197;BME280;26543;51.976;4.616;2023-11-21T09:15:37;60840.97;;;-140.72;100.00
38197;BME280;26543;51.976;4.616;2023-11-21T09:18:02;60769.81;;;-140.72;100.00
38197;BME280;26543;51.976;4.616;2023-11-21T09:20:28;60741.34;;;-140.72;100.00
38197;BME280;26543;51.976;4.616;2023-11-21T09:22:53;60721.00;;;-140.72;100.00
38197;BME280;26543;51.976;4.616;2023-11-21T09:25:20;60741.34;;;-140.72;100.00
38197;BME280;26543;51.976;4.616;2023-11-21T09:27:46;60727.13;;;-140.72;100.00
38197;BME280;26543;51.976;4.616;2023-11-21T09:30:12;60743.38;;;-140.72;100.00
38197;BME280;26543;51.976;4.616;2023-11-21T09:32:39;60668.16;;;-140.72;100.00
38197;BME280;26543;51.976;4.616;2023-11-21T09:35:05;60686.44;;;-140.72;100.00
38197;BME280;26543;51.976;4.616;2023-11-21T09:37:33;60613.25;;;-140.72;100.00
38197;BME280;26543;51.976;4.616;2023-11-21T09:39:58;60611.22;;;-140.72;100.00
38197;BME280;26543;51.976;4.616;2023-11-21T09:42:25;60540.03;;;-140.72;100.00
38197;BME280;26543;51.976;4.616;2023-11-21T09:45:14;60533.94;;;-140.72;100.00
38197;BME280;26543;51.976;4.616;2023-11-21T09:47:42;60533.94;;;-140.72;100.00
38197;BME280;26543;51.976;4.616;2023-11-21T09:50:08;60527.84;;;-140.72;100.00
38197;BME280;26543;51.976;4.616;2023-11-21T09:52:38;60450.59;;;-140.72;100.00
38197;BME280;26543;51.976;4.616;2023-11-21T09:55:05;60460.75;;;-140.72;100.00
38197;BME280;26543;51.976;4.616;2023-11-21T09:57:30;60430.25;;;-140.72;100.00
38197;BME280;26543;51.976;4.616;2023-11-21T09:59:56;60340.78;;;-140.72;100.00
38197;BME280;26543;51.976;4.616;2023-11-21T10:02:26;60302.16;;;-140.72;100.00
38197;BME280;26543;51.976;4.616;2023-11-21T10:04:53;60298.09;;;-140.72;100.00
38197;BME280;26543;51.976;4.616;2023-11-21T10:07:19;60257.44;;;-140.72;100.00
38197;BME280;26543;51.976;4.616;2023-11-21T10:09:45;60224.91;;;-140.72;100.00
38197;BME280;26543;51.976;4.616;2023-11-21T10:12:11;60214.72;;;-140.72;100.00
38197;BME280;26543;51.976;4.616;2023-11-21T10:14:37;60174.06;;;-140.72;100.00
38197;BME280;26543;51.976;4.616;2023-11-21T10:17:06;60198.47;;;-140.72;100.00
38197;BME280;26543;51.976;4.616;2023-11-21T10:19:33;60157.81;;;-140.72;100.00
38197;BME280;26543;51.976;4.616;2023-11-21T10:22:00;60145.59;;;-140.72;100.00
38197;BME280;26543;51.976;4.616;2023-11-21T10:24:26;60123.25;;;-140.72;100.00
38197;BME280;26543;51.976;4.616;2023-11-21T10:26:52;60161.88;;;-140.72;100.00
38197;BME280;26543;51.976;4.616;2023-11-21T10:29:18;60104.94;;;-140.72;100.00
38197;BME280;26543;51.976;4.616;2023-11-21T10:31:44;60109.00;;;-140.72;100.00
38197;BME280;26543;51.976;4.616;2023-11-21T10:34:13;60080.56;;;-140.72;100.00
38197;BME280;26543;51.976;4.616;2023-11-21T10:36:39;60062.25;;;-140.72;100.00
38197;BME280;26543;51.976;4.616;2023-11-21T10:39:04;60011.44;;;-140.72;100.00
38197;BME280;26543;51.976;4.616;2023-11-21T10:41:29;59995.16;;;-140.72;100.00
38197;BME280;26543;51.976;4.616;2023-11-21T10:43:55;59987.03;;;-140.72;100.00
38197;BME280;26543;51.976;4.616;2023-11-21T10:46:21;59926.03;;;-140.72;100.00
38197;BME280;26543;51.976;4.616;2023-11-21T10:48:50;59950.44;;;-140.72;100.00
38197;BME280;26543;51.976;4.616;2023-11-21T10:51:16;59926.03;;;-140.72;100.00
38197;BME280;26543;51.976;4.616;2023-11-21T10:53:44;59881.31;;;-140.72;100.00
38197;BME280;26543;51.976;4.616;2023-11-21T10:56:10;59830.50;;;-140.72;100.00
38197;BME280;26543;51.976;4.616;2023-11-21T10:58:42;59852.84;;;-140.72;100.00
38197;BME280;26543;51.976;4.616;2023-11-21T11:01:08;59856.91;;;-140.72;100.00
38197;BME280;26543;51.976;4.616;2023-11-21T11:03:36;59789.84;;;-140.72;100.00
38197;BME280;26543;51.976;4.616;2023-11-21T11:06:03;59771.53;;;-140.72;100.00
38197;BME280;26543;51.976;4.616;2023-11-21T11:08:29;59800.00;;;-140.72;100.00
38197;BME280;26543;51.976;4.616;2023-11-21T11:10:55;59757.31;;;-140.72;100.00
38197;BME280;26543;51.976;4.616;2023-11-21T11:13:20;59739.00;;;-140.72;100.00
38197;BME280;26543;51.976;4.616;2023-11-21T11:15:49;59755.28;;;-140.72;100.00
38197;BME280;26543;51.976;4.616;2023-11-21T11:18:15;59730.88;;;-140.72;100.00
38197;BME280;26543;51.976;4.616;2023-11-21T11:20:41;59661.75;;;-140.72;100.00
38197;BME280;26543;51.976;4.616;2023-11-21T11:33:53;59486.94;;;-140.72;100.00
38197;BME280;26543;51.976;4.616;2023-11-21T11:36:25;59468.66;;;-140.72;100.00
38197;BME280;26543;51.976;4.616;2023-11-21T11:38:51;59405.63;;;-140.72;100.00
38197;BME280;26543;51.976;4.616;2023-11-21T11:41:26;59389.38;;;-140.72;100.00
38197;BME280;26543;51.976;4.616;2023-11-21T11:43:52;59411.72;;;-140.72;100.00
38197;BME280;26543;51.976;4.616;2023-11-21T11:46:18;59377.19;;;-140.72;100.00
38197;BME280;26543;51.976;4.616;2023-11-21T11:48:43;59310.09;;;-140.72;100.00
38197;BME280;26543;51.976;4.616;2023-11-21T11:51:13;59340.59;;;-140.72;100.00
38197;BME280;26543;51.976;4.616;2023-11-21T11:53:40;59316.19;;;-140.72;100.00
38197;BME280;26543;51.976;4.616;2023-11-21T11:56:19;59342.63;;;-140.72;100.00
38197;BME280;26543;51.976;4.616;2023-11-21T11:58:44;59326.34;;;-140.72;100.00
38197;BME280;26543;51.976;4.616;2023-11-21T12:01:11;59332.47;;;-140.72;100.00
38197;BME280;26543;51.976;4.616;2023-11-21T12:03:37;59324.31;;;-140.72;100.00
38197;BME280;26543;51.976;4.616;2023-11-21T12:06:02;59340.59;;;-140.72;100.00
38197;BME280;26543;51.976;4.616;2023-11-21T12:08:28;59373.09;;;-140.72;100.00
38197;BME280;26543;51.976;4.616;2023-11-21T12:10:56;59360.91;;;-140.72;100.00
38197;BME280;26543;51.976;4.616;2023-11-21T12:13:22;59322.28;;;-140.72;100.00
38197;BME280;26543;51.976;4.616;2023-11-21T12:15:48;59364.97;;;-140.72;100.00
38197;BME280;26543;51.976;4.616;2023-11-21T12:18:13;59316.19;;;-140.72;100.00
38197;BME280;26543;51.976;4.616;2023-11-21T12:20:39;59328.38;;;-140.72;100.00
38197;BME280;26543;51.976;4.616;2023-11-21T12:23:06;59344.66;;;-140.72;100.00
38197;BME280;26543;51.976;4.616;2023-11-21T12:25:31;59375.16;;;-140.72;100.00
38197;BME280;26543;51.976;4.616;2023-11-21T12:27:57;59354.81;;;-140.72;100.00
38197;BME280;26543;51.976;4.616;2023-11-21T12:30:24;59407.66;;;-140.72;100.00
38197;BME280;26543;51.976;4.616;2023-11-21T12:32:51;59393.44;;;-140.72;100.00
38197;BME280;26543;51.976;4.616;2023-11-21T12:35:17;59415.78;;;-140.72;100.00
38197;BME280;26543;51.976;4.616;2023-11-21T12:37:44;59395.47;;;-140.72;100.00
38197;BME280;26543;51.976;4.616;2023-11-21T12:40:10;59450.34;;;-140.72;100.00
38197;BME280;26543;51.976;4.616;2023-11-21T12:42:44;59401.56;;;-140.72;100.00
38197;BME280;26543;51.976;4.616;2023-11-21T12:47:41;59336.53;;;-140.72;100.00
38197;BME280;26543;51.976;4.616;2023-11-21T12:50:07;59336.53;;;-140.72;100.00